createdAt,value
2017-11-17T00:02:07.544Z,79.65
2017-11-17T00:04:35.124Z,55.25
2017-11-17T00:07:02.688Z,68.90
2017-11-17T00:09:30.291Z,62.05
2017-11-17T00:11:57.850Z,63.00
2017-11-17T00:14:25.439Z,68.60
2017-11-17T00:16:53.820Z,63.95
2017-11-17T00:19:21.438Z,63.38
2017-11-17T00:21:49.003Z,59.95
2017-11-17T00:24:16.696Z,67.07
2017-11-17T00:26:45.032Z,63.75
2017-11-17T00:29:12.590Z,69.20
2017-11-17T00:31:40.173Z,62.55
2017-11-17T00:34:07.767Z,65.57
2017-11-17T00:36:35.331Z,65.90
2017-11-17T00:39:02.922Z,62.28
2017-11-17T00:41:30.538Z,66.45
2017-11-17T00:43:58.862Z,60.78
2017-11-17T00:46:26.435Z,68.32
2017-11-17T00:48:54.039Z,58.40
2017-11-17T00:51:22.402Z,64.37
2017-11-17T00:53:49.954Z,64.07
2017-11-17T00:56:17.508Z,60.42
2017-11-17T00:58:45.099Z,74.22
2017-11-17T01:01:13.460Z,61.60
2017-11-17T01:03:41.019Z,78.85
2017-11-17T01:06:08.630Z,69.00
2017-11-17T01:08:36.194Z,69.75
2017-11-17T01:11:03.755Z,70.18
2017-11-17T01:13:31.361Z,86.90
2017-11-17T01:15:58.918Z,70.97
2017-11-17T01:18:26.475Z,78.80
2017-11-17T01:20:54.080Z,67.55
2017-11-17T01:23:21.635Z,76.35
2017-11-17T01:25:49.223Z,80.22
2017-11-17T01:28:16.781Z,68.78
2017-11-17T01:30:44.380Z,79.35
2017-11-17T01:33:11.988Z,69.03
2017-11-17T01:35:39.551Z,68.85
2017-11-17T01:38:07.128Z,72.97
2017-11-17T01:40:34.744Z,74.97
2017-11-17T01:43:03.105Z,73.68
2017-11-17T01:45:30.708Z,69.90
2017-11-17T01:47:58.296Z,77.43
2017-11-17T01:50:25.902Z,68.55
2017-11-17T01:52:54.233Z,91.32
2017-11-17T01:55:21.852Z,90.22
2017-11-17T01:57:50.168Z,75.03
2017-11-17T02:00:17.727Z,70.55
2017-11-17T02:02:45.338Z,80.87
2017-11-17T02:05:13.680Z,76.32
2017-11-17T02:07:41.270Z,79.45
2017-11-17T02:10:09.606Z,76.45
2017-11-17T02:12:37.987Z,74.37
2017-11-17T02:15:05.554Z,83.28
2017-11-17T02:17:33.164Z,81.10
2017-11-17T02:20:01.511Z,71.68
2017-11-17T02:22:29.079Z,90.97
2017-11-17T02:24:56.676Z,77.45
2017-11-17T02:27:25.048Z,72.03
2017-11-17T02:29:53.380Z,79.95
2017-11-17T02:32:20.990Z,84.95
2017-11-17T02:34:49.381Z,82.05
2017-11-17T02:37:16.958Z,79.87
2017-11-17T02:39:44.562Z,71.65
2017-11-17T02:42:12.128Z,79.47
2017-11-17T02:44:39.705Z,77.97
2017-11-17T02:47:08.089Z,74.85
2017-11-17T02:49:36.425Z,90.45
2017-11-17T02:52:04.027Z,78.32
2017-11-17T02:54:32.386Z,72.18
2017-11-17T02:57:00.754Z,73.07
2017-11-17T02:59:28.384Z,75.37
2017-11-17T03:01:55.949Z,81.75
2017-11-17T03:04:23.552Z,67.03
2017-11-17T03:06:51.160Z,82.28
2017-11-17T03:09:18.727Z,82.10
2017-11-17T03:11:46.320Z,84.35
2017-11-17T03:14:13.955Z,82.80
2017-11-17T03:16:41.596Z,75.80
2017-11-17T03:19:09.199Z,84.13
2017-11-17T03:21:36.795Z,77.30
2017-11-17T03:24:05.119Z,81.93
2017-11-17T03:26:33.474Z,76.55
2017-11-17T03:29:01.035Z,71.60
2017-11-17T03:31:28.639Z,74.68
2017-11-17T03:33:56.192Z,69.35
2017-11-17T03:36:23.818Z,74.75
2017-11-17T03:38:51.511Z,71.32
2017-11-17T03:41:19.071Z,73.72
2017-11-17T03:43:46.699Z,75.50
2017-11-17T03:46:14.260Z,72.93
2017-11-17T03:48:41.823Z,86.95
2017-11-17T03:51:09.427Z,73.50
2017-11-17T03:53:37.000Z,72.07
2017-11-17T03:56:04.631Z,73.15
2017-11-17T03:58:32.191Z,80.90
2017-11-17T04:00:59.790Z,65.18
2017-11-17T04:03:28.302Z,87.43
2017-11-17T04:05:55.924Z,70.50
2017-11-17T04:08:23.493Z,82.75
2017-11-17T04:10:51.059Z,75.93
2017-11-17T04:13:18.659Z,72.87
2017-11-17T04:15:46.273Z,79.10
2017-11-17T04:18:13.849Z,68.00
2017-11-17T04:20:42.211Z,79.87
2017-11-17T04:23:09.821Z,63.95
2017-11-17T04:25:37.399Z,96.82
2017-11-17T04:28:05.001Z,71.35
2017-11-17T04:30:33.388Z,76.75
2017-11-17T04:33:01.745Z,78.95
2017-11-17T04:35:29.309Z,97.95
2017-11-17T04:37:56.919Z,86.82
2017-11-17T04:40:24.483Z,91.20
2017-11-17T04:42:52.086Z,78.62
2017-11-17T04:45:19.679Z,89.18
2017-11-17T04:47:47.995Z,80.68
2017-11-17T04:50:15.594Z,84.40
2017-11-17T04:52:43.218Z,84.03
2017-11-17T04:55:10.773Z,87.55
2017-11-17T04:57:38.344Z,80.62
2017-11-17T05:00:05.959Z,98.78
2017-11-17T05:02:34.291Z,105.20
2017-11-17T05:05:01.847Z,81.90
2017-11-17T05:07:29.438Z,88.00
2017-11-17T05:09:56.998Z,84.60
2017-11-17T05:12:24.593Z,98.70
2017-11-17T05:14:52.959Z,85.57
2017-11-17T05:17:20.562Z,94.15
2017-11-17T05:19:48.153Z,84.70
2017-11-17T05:22:15.749Z,87.62
2017-11-17T05:24:44.128Z,89.87
2017-11-17T05:27:12.448Z,90.72
2017-11-17T05:29:40.004Z,98.60
2017-11-17T05:32:07.622Z,81.78
2017-11-17T05:34:35.976Z,86.95
2017-11-17T05:37:03.583Z,86.65
2017-11-17T05:39:31.157Z,85.28
2017-11-17T05:41:58.787Z,98.75
2017-11-17T05:44:27.135Z,84.40
2017-11-17T05:46:54.717Z,91.50
2017-11-17T05:49:23.078Z,98.40
2017-11-17T05:51:50.641Z,87.07
2017-11-17T05:54:18.243Z,83.37
2017-11-17T05:56:45.794Z,87.20
2017-11-17T05:59:14.116Z,89.15
2017-11-17T06:01:41.743Z,96.25
2017-11-17T06:04:09.303Z,92.43
2017-11-17T06:06:36.875Z,93.18
2017-11-17T06:09:04.488Z,87.60
2017-11-17T06:11:32.048Z,105.47
2017-11-17T06:13:59.648Z,113.05
2017-11-17T06:16:27.259Z,107.45
2017-11-17T06:18:54.833Z,100.57
2017-11-17T06:21:22.465Z,104.47
2017-11-17T06:23:50.032Z,107.60
2017-11-17T06:26:18.399Z,101.75
2017-11-17T06:28:45.997Z,87.45
2017-11-17T06:31:13.598Z,95.72
2017-11-17T06:33:41.925Z,93.28
2017-11-17T06:36:09.544Z,110.55
2017-11-17T06:38:37.144Z,101.75
2017-11-17T06:41:04.714Z,110.80
2017-11-17T06:43:32.335Z,110.43
2017-11-17T06:45:59.911Z,115.18
2017-11-17T06:48:27.476Z,100.18
2017-11-17T06:50:55.087Z,110.65
2017-11-17T06:53:24.055Z,102.72
2017-11-17T06:55:51.676Z,103.68
2017-11-17T06:58:19.259Z,110.30
2017-11-17T07:00:46.847Z,111.53
2017-11-17T07:03:14.445Z,101.95
2017-11-17T07:05:42.060Z,110.63
2017-11-17T07:08:10.412Z,110.85
2017-11-17T07:10:37.978Z,110.63
2017-11-17T07:13:05.594Z,126.62
2017-11-17T07:15:33.174Z,113.62
2017-11-17T07:18:00.852Z,106.37
2017-11-17T07:20:28.421Z,108.65
2017-11-17T07:22:56.043Z,113.18
2017-11-17T07:25:23.729Z,109.05
2017-11-17T07:27:51.290Z,118.50
2017-11-17T07:30:18.855Z,123.60
2017-11-17T07:32:46.464Z,106.20
2017-11-17T07:35:14.836Z,114.28
2017-11-17T07:37:42.398Z,109.63
2017-11-17T07:40:10.067Z,111.55
2017-11-17T07:42:38.387Z,110.95
2017-11-17T07:45:05.959Z,105.25
2017-11-17T07:47:33.556Z,115.07
2017-11-17T07:50:01.280Z,111.65
2017-11-17T07:52:30.481Z,113.30
2017-11-17T07:55:03.434Z,106.87
2017-11-17T07:57:34.945Z,112.60
2017-11-17T08:00:02.574Z,123.20
2017-11-17T08:02:30.170Z,90.53
2017-11-17T08:04:57.733Z,99.13
2017-11-17T08:07:25.327Z,112.30
2017-11-17T08:09:53.666Z,101.60
2017-11-17T08:12:37.392Z,96.10
2017-11-17T08:15:06.383Z,125.60
2017-11-17T08:17:45.804Z,114.93
2017-11-17T08:20:13.411Z,106.15
2017-11-17T08:22:41.002Z,102.45
2017-11-17T08:25:08.615Z,128.68
2017-11-17T08:27:36.225Z,93.37
2017-11-17T08:30:03.827Z,105.15
2017-11-17T08:32:31.404Z,98.82
2017-11-17T08:34:59.020Z,91.72
2017-11-17T08:37:26.600Z,93.07
2017-11-17T08:39:54.206Z,103.38
2017-11-17T08:42:21.767Z,92.53
2017-11-17T08:44:50.218Z,98.47
2017-11-17T08:47:17.844Z,94.53
2017-11-17T08:49:45.407Z,91.60
2017-11-17T08:52:13.835Z,102.00
2017-11-17T08:54:41.471Z,94.40
2017-11-17T08:57:09.033Z,86.97
2017-11-17T08:59:36.617Z,89.07
2017-11-17T09:02:04.224Z,117.87
2017-11-17T09:04:31.840Z,99.65
2017-11-17T09:06:59.423Z,98.90
2017-11-17T09:09:27.823Z,100.05
2017-11-17T09:11:55.533Z,103.25
2017-11-17T09:14:23.159Z,104.57
2017-11-17T09:16:51.132Z,109.45
2017-11-17T09:19:18.894Z,116.93
2017-11-17T09:21:46.495Z,107.10
2017-11-17T09:24:14.140Z,112.07
2017-11-17T09:26:41.754Z,106.55
2017-11-17T09:29:10.204Z,105.05
2017-11-17T09:31:38.612Z,118.50
2017-11-17T09:34:16.368Z,102.15
2017-11-17T09:36:44.037Z,133.07
2017-11-17T09:39:11.654Z,124.47
2017-11-17T09:41:39.244Z,108.45
2017-11-17T09:44:06.866Z,103.65
2017-11-17T09:46:34.611Z,112.37
2017-11-17T09:49:02.183Z,106.03
2017-11-17T09:51:30.576Z,119.18
2017-11-17T09:53:58.178Z,97.05
2017-11-17T09:56:25.928Z,109.40
2017-11-17T09:58:53.590Z,115.45
2017-11-17T10:01:21.183Z,108.70
2017-11-17T10:03:49.043Z,92.25
2017-11-17T10:06:16.676Z,105.47
2017-11-17T10:08:44.274Z,118.53
2017-11-17T10:11:11.878Z,106.10
2017-11-17T10:13:39.491Z,123.95
2017-11-17T10:16:07.126Z,102.90
2017-11-17T10:18:34.690Z,113.32
2017-11-17T10:21:02.338Z,126.32
2017-11-17T10:23:29.969Z,124.78
2017-11-17T10:25:58.343Z,110.07
2017-11-17T10:28:26.726Z,109.95
2017-11-17T10:30:55.112Z,116.88
2017-11-17T10:33:22.734Z,101.75
2017-11-17T10:35:50.298Z,98.05
2017-11-17T10:38:17.916Z,123.22
2017-11-17T10:40:45.498Z,113.85
2017-11-17T10:43:13.067Z,111.57
2017-11-17T10:45:40.651Z,103.75
2017-11-17T10:48:08.261Z,133.77
2017-11-17T10:50:35.935Z,115.43
2017-11-17T10:53:03.538Z,114.65
2017-11-17T10:55:31.265Z,104.43
2017-11-17T10:57:59.827Z,123.15
2017-11-17T11:00:27.457Z,115.65
2017-11-17T11:02:55.067Z,138.90
2017-11-17T11:05:22.769Z,118.13
2017-11-17T11:07:57.600Z,122.75
2017-11-17T11:10:25.210Z,100.72
2017-11-17T11:12:52.793Z,118.75
2017-11-17T11:15:20.471Z,129.00
2017-11-17T11:17:48.182Z,108.87
2017-11-17T11:20:15.788Z,109.03
2017-11-17T11:22:43.392Z,117.65
2017-11-17T11:25:11.725Z,118.90
2017-11-17T11:27:39.283Z,117.62
2017-11-17T11:30:06.875Z,107.05
2017-11-17T11:32:34.497Z,104.90
2017-11-17T11:35:02.055Z,101.62
2017-11-17T11:37:29.628Z,104.28
2017-11-17T11:39:57.236Z,102.72
2017-11-17T11:42:25.607Z,115.93
2017-11-17T11:44:53.950Z,105.78
2017-11-17T11:47:21.660Z,94.28
2017-11-17T11:49:49.300Z,109.97
2017-11-17T11:52:16.876Z,118.82
2017-11-17T11:54:45.633Z,110.55
2017-11-17T11:57:14.164Z,123.38
2017-11-17T11:59:42.024Z,111.68
2017-11-17T12:02:09.758Z,116.35
2017-11-17T12:04:37.540Z,122.10
2017-11-17T12:07:05.344Z,122.40
2017-11-17T12:09:33.017Z,123.80
2017-11-17T12:12:01.102Z,126.10
2017-11-17T12:14:29.219Z,122.35
2017-11-17T12:16:58.130Z,148.75
2017-11-17T12:19:27.526Z,112.78
2017-11-17T12:21:55.549Z,139.15
2017-11-17T12:24:23.586Z,124.22
2017-11-17T12:26:51.833Z,134.05
2017-11-17T12:29:22.861Z,119.70
2017-11-17T12:32:03.062Z,117.07
2017-11-17T12:34:36.796Z,130.12
2017-11-17T12:37:05.612Z,123.87
2017-11-17T12:39:33.336Z,117.20
2017-11-17T12:42:00.916Z,116.62
2017-11-17T12:44:28.543Z,100.12
2017-11-17T12:46:56.226Z,108.45
2017-11-17T12:49:27.461Z,100.78
2017-11-17T12:51:56.215Z,97.88
2017-11-17T12:54:24.016Z,102.45
2017-11-17T12:56:52.669Z,105.57
2017-11-17T12:59:21.024Z,106.68
2017-11-17T13:01:48.668Z,111.30
2017-11-17T13:04:16.262Z,117.75
2017-11-17T13:06:44.642Z,96.05
2017-11-17T13:09:12.239Z,106.20
2017-11-17T13:11:39.860Z,94.80
2017-11-17T13:14:07.468Z,99.18
2017-11-17T13:16:35.073Z,87.37
2017-11-17T13:19:02.638Z,95.78
2017-11-17T13:21:30.231Z,93.80
2017-11-17T13:23:57.824Z,89.40
2017-11-17T13:26:25.825Z,97.25
2017-11-17T13:28:53.391Z,98.57
2017-11-17T13:31:22.066Z,95.25
2017-11-17T13:33:50.526Z,83.68
2017-11-17T13:36:18.159Z,89.53
2017-11-17T13:38:45.702Z,94.57
2017-11-17T13:41:14.058Z,92.12
2017-11-17T13:43:41.645Z,86.30
2017-11-17T13:46:10.023Z,89.47
2017-11-17T13:48:38.369Z,100.32
2017-11-17T13:51:05.992Z,82.68
2017-11-17T13:53:33.634Z,72.15
2017-11-17T13:56:01.773Z,65.07
2017-11-17T13:58:29.348Z,62.83
2017-11-17T14:00:57.742Z,83.15
2017-11-17T14:03:26.067Z,68.32
2017-11-17T14:05:53.636Z,75.57
2017-11-17T14:08:22.041Z,79.62
2017-11-17T14:10:49.639Z,77.60
2017-11-17T14:13:17.224Z,75.68
2017-11-17T14:15:44.894Z,76.78
2017-11-17T14:18:13.239Z,80.78
2017-11-17T14:20:40.918Z,87.35
2017-11-17T14:23:08.506Z,89.55
2017-11-17T14:25:36.189Z,97.30
2017-11-17T14:28:03.794Z,91.12
2017-11-17T14:30:32.275Z,105.22
2017-11-17T14:32:59.881Z,109.50
2017-11-17T14:35:27.651Z,96.65
2017-11-17T14:37:56.161Z,90.47
2017-11-17T14:40:25.360Z,112.32
2017-11-17T14:42:54.030Z,112.40
2017-11-17T14:45:21.865Z,104.40
2017-11-17T14:47:49.620Z,105.47
2017-11-17T14:50:18.140Z,110.85
2017-11-17T14:52:46.920Z,102.68
2017-11-17T14:55:14.503Z,113.12
2017-11-17T14:57:42.890Z,118.95
2017-11-17T15:00:11.292Z,124.45
2017-11-17T15:02:38.909Z,124.28
2017-11-17T15:05:07.296Z,128.62
2017-11-17T15:07:35.740Z,129.32
2017-11-17T15:10:03.447Z,113.37
2017-11-17T15:12:31.836Z,143.20
2017-11-17T15:15:00.365Z,119.37
2017-11-17T15:17:28.299Z,123.70
2017-11-17T15:19:56.252Z,126.82
2017-11-17T15:22:29.725Z,122.47
2017-11-17T15:25:04.412Z,117.40
2017-11-17T15:27:37.491Z,123.05
2017-11-17T15:30:10.152Z,113.75
2017-11-17T15:32:40.907Z,122.00
2017-11-17T15:35:08.895Z,146.37
2017-11-17T15:37:36.538Z,125.82
2017-11-17T15:40:16.688Z,127.72
2017-11-17T15:45:50.276Z,140.80
2017-11-17T15:48:17.887Z,144.30
2017-11-17T15:50:45.457Z,132.65
2017-11-17T15:53:13.969Z,119.97
2017-11-17T15:55:42.389Z,132.12
2017-11-17T15:58:10.802Z,151.48
2017-11-17T16:00:40.547Z,106.07
2017-11-17T16:03:08.152Z,132.87
2017-11-17T16:05:35.743Z,126.87
2017-11-17T16:08:03.321Z,112.07
2017-11-17T16:10:32.185Z,128.55
2017-11-17T16:12:59.817Z,125.25
2017-11-17T16:15:31.572Z,110.82
2017-11-17T16:18:05.868Z,119.57
2017-11-17T16:20:34.206Z,124.35
2017-11-17T16:23:06.496Z,116.28
2017-11-17T16:25:34.056Z,121.65
2017-11-17T16:38:14.427Z,100.22
2017-11-17T16:40:54.690Z,117.50
2017-11-17T16:43:22.383Z,90.80
2017-11-17T16:45:49.965Z,118.40
2017-11-17T16:48:17.644Z,116.43
2017-11-17T16:50:45.288Z,104.18
2017-11-17T16:53:12.852Z,106.72
2017-11-17T16:55:40.492Z,105.43
2017-11-17T16:58:09.690Z,119.03
2017-11-17T17:00:38.896Z,96.22
2017-11-17T17:03:06.520Z,118.65
2017-11-17T17:05:34.888Z,94.45
2017-11-17T17:08:03.272Z,117.60
2017-11-17T17:10:33.411Z,88.95
2017-11-17T17:13:02.563Z,96.05
2017-11-17T17:15:32.169Z,103.15
2017-11-17T17:18:01.935Z,98.35
2017-11-17T17:20:31.027Z,112.50
2017-11-17T17:23:01.296Z,106.68
2017-11-17T17:25:31.236Z,99.95
2017-11-17T17:28:01.234Z,109.78
2017-11-17T17:30:30.271Z,116.55
2017-11-17T17:32:59.813Z,116.50
2017-11-17T17:35:29.010Z,112.60
2017-11-17T17:37:57.716Z,113.60
2017-11-17T17:40:28.106Z,114.45
2017-11-17T17:42:57.195Z,94.15
2017-11-17T17:45:26.374Z,115.57
2017-11-17T17:47:55.871Z,99.95
2017-11-17T17:50:27.408Z,102.78
2017-11-17T17:52:57.137Z,102.38
2017-11-17T17:55:27.010Z,93.03
2017-11-17T17:57:57.529Z,112.72
2017-11-17T18:00:27.503Z,96.78
2017-11-17T18:02:59.855Z,104.00
2017-11-17T18:05:30.872Z,119.10
2017-11-17T18:08:01.538Z,102.57
2017-11-17T18:10:32.301Z,116.65
2017-11-17T18:13:01.967Z,114.70
2017-11-17T18:15:31.826Z,125.05
2017-11-17T18:18:01.440Z,114.30
2017-11-17T18:20:32.190Z,137.68
2017-11-17T18:23:03.870Z,109.70
2017-11-17T18:25:34.022Z,105.63
2017-11-17T18:28:08.260Z,108.18
2017-11-17T18:30:38.908Z,124.00
2017-11-17T18:33:08.627Z,127.90
2017-11-17T18:35:38.536Z,117.13
2017-11-17T18:38:09.910Z,109.95
2017-11-17T18:40:40.505Z,118.10
2017-11-17T18:43:12.142Z,107.55
2017-11-17T18:45:42.705Z,109.50
2017-11-17T18:48:12.386Z,116.78
2017-11-17T18:50:42.956Z,127.00
2017-11-17T18:53:13.549Z,109.07
2017-11-17T18:55:44.630Z,117.60
2017-11-17T18:58:14.308Z,113.93
2017-11-17T19:00:43.944Z,113.85
2017-11-17T19:03:18.202Z,129.95
2017-11-17T19:05:48.278Z,129.38
2017-11-17T19:08:17.004Z,140.98
2017-11-17T19:10:47.412Z,128.80
2017-11-17T19:13:17.574Z,123.20
2017-11-17T19:15:48.060Z,129.98
2017-11-17T19:18:17.543Z,116.22
2017-11-17T19:20:47.389Z,133.70
2017-11-17T19:23:17.963Z,153.80
2017-11-17T19:25:48.407Z,143.13
2017-11-17T19:28:18.195Z,142.23
2017-11-17T19:30:49.525Z,121.57
2017-11-17T19:33:19.207Z,129.73
2017-11-17T19:35:49.947Z,139.77
2017-11-17T19:38:19.537Z,134.15
2017-11-17T19:40:48.638Z,127.78
2017-11-17T19:43:18.575Z,115.35
2017-11-17T19:45:48.388Z,118.45
2017-11-17T19:48:18.010Z,141.50
2017-11-17T19:50:47.615Z,125.62
2017-11-17T19:53:18.649Z,110.65
2017-11-17T19:55:48.477Z,127.80
2017-11-17T19:58:18.079Z,112.88
2017-11-17T20:00:48.664Z,123.60
2017-11-17T20:03:18.307Z,120.80
2017-11-17T20:05:56.093Z,130.02
2017-11-17T20:08:25.914Z,112.85
2017-11-17T20:10:55.566Z,128.70
2017-11-17T20:13:29.798Z,142.57
2017-11-17T20:15:59.482Z,149.90
2017-11-17T20:18:29.132Z,139.15
2017-11-17T20:20:58.514Z,135.68
2017-11-17T20:23:28.195Z,127.90
2017-11-17T20:25:57.791Z,121.65
2017-11-17T20:28:27.489Z,118.90
2017-11-17T20:30:57.270Z,127.38
2017-11-17T20:33:26.950Z,116.97
2017-11-17T20:35:57.287Z,125.75
2017-11-17T20:38:27.720Z,129.48
2017-11-17T20:40:58.299Z,114.37
2017-11-17T20:43:27.813Z,105.22
2017-11-17T20:45:57.290Z,122.95
2017-11-17T20:48:27.961Z,121.82
2017-11-17T20:50:57.550Z,134.70
2017-11-17T20:53:26.952Z,126.93
2017-11-17T20:55:55.702Z,140.48
2017-11-17T20:58:25.655Z,121.72
2017-11-17T21:00:55.108Z,118.50
2017-11-17T21:03:25.437Z,129.45
2017-11-17T21:05:56.305Z,111.47
2017-11-17T21:08:25.832Z,122.87
2017-11-17T21:10:55.475Z,123.32
2017-11-17T21:13:24.963Z,130.40
2017-11-17T21:15:54.984Z,112.00
2017-11-17T21:18:23.236Z,118.47
2017-11-17T21:20:51.176Z,125.97
2017-11-17T21:23:21.404Z,123.05
2017-11-17T21:25:49.272Z,132.18
2017-11-17T21:28:18.003Z,125.00
2017-11-17T21:30:47.078Z,110.10
2017-11-17T21:33:16.770Z,116.72
2017-11-17T21:35:46.313Z,106.55
2017-11-17T21:38:15.428Z,102.50
2017-11-17T21:40:45.565Z,112.53
2017-11-17T21:43:15.206Z,119.37
2017-11-17T21:45:44.551Z,114.43
2017-11-17T21:48:12.608Z,117.10
2017-11-17T21:50:41.614Z,122.00
2017-11-17T21:53:10.769Z,124.87
2017-11-17T21:55:40.987Z,119.53
2017-11-17T21:58:13.208Z,116.15
2017-11-17T22:00:42.412Z,129.73
2017-11-17T22:03:11.729Z,115.82
2017-11-17T22:05:42.751Z,111.55
2017-11-17T22:08:12.001Z,132.73
2017-11-17T22:10:41.295Z,144.10
2017-11-17T22:13:10.769Z,153.45
2017-11-17T22:15:41.237Z,136.52
2017-11-17T22:18:10.824Z,129.32
2017-11-17T22:20:40.079Z,115.50
2017-11-17T22:23:09.219Z,123.57
2017-11-17T22:25:39.716Z,132.48
2017-11-17T22:28:08.164Z,112.88
2017-11-17T22:30:37.705Z,112.55
2017-11-17T22:33:08.071Z,112.37
2017-11-17T22:35:37.740Z,113.57
2017-11-17T22:38:07.103Z,125.20
2017-11-17T22:40:36.606Z,124.20
2017-11-17T22:43:05.835Z,108.90
2017-11-17T22:45:36.251Z,123.35
2017-11-17T22:48:04.194Z,136.27
2017-11-17T22:50:32.073Z,125.45
2017-11-17T22:53:00.213Z,125.22
2017-11-17T22:55:30.276Z,130.52
2017-11-17T22:58:00.859Z,134.65
2017-11-17T23:00:31.083Z,106.97
2017-11-17T23:03:01.256Z,123.75
2017-11-17T23:05:30.695Z,121.97
2017-11-17T23:08:02.590Z,116.37
2017-11-17T23:10:32.675Z,129.52
2017-11-17T23:13:02.701Z,141.88
2017-11-17T23:15:32.445Z,131.07
2017-11-17T23:18:02.026Z,134.18
2017-11-17T23:20:32.704Z,122.80
2017-11-17T23:23:02.359Z,112.32
2017-11-17T23:25:33.453Z,122.78
2017-11-17T23:28:03.856Z,121.43
2017-11-17T23:30:33.131Z,123.38
2017-11-17T23:33:04.254Z,113.53
2017-11-17T23:35:33.658Z,107.05
2017-11-17T23:38:03.159Z,106.80
2017-11-17T23:40:32.760Z,114.12
2017-11-17T23:43:02.175Z,96.93
2017-11-17T23:45:31.701Z,100.00
2017-11-17T23:48:02.331Z,122.15
2017-11-17T23:50:33.772Z,109.45
2017-11-17T23:53:04.324Z,102.90
2017-11-17T23:55:34.478Z,93.95
2017-11-17T23:58:04.680Z,116.47
